地図

経路データ

SID SEASON NUMBER BASIN SUBBASIN NAME ISO_TIME NATURE LAT LON WMO_WIND WMO_PRES WMO_AGENCY TRACK_TYPE DIST2LAND LANDFALL IFLAG USA_AGENCY USA_ATCF_ID USA_LAT USA_LON USA_RECORD USA_STATUS USA_WIND USA_PRES USA_SSHS USA_R34_NE USA_R34_SE USA_R34_SW USA_R34_NW USA_R50_NE USA_R50_SE USA_R50_SW USA_R50_NW USA_R64_NE USA_R64_SE USA_R64_SW USA_R64_NW USA_POCI USA_ROCI USA_RMW USA_EYE TOKYO_LAT TOKYO_LON TOKYO_GRADE TOKYO_WIND TOKYO_PRES TOKYO_R50_DIR TOKYO_R50_LONG TOKYO_R50_SHORT TOKYO_R30_DIR TOKYO_R30_LONG TOKYO_R30_SHORT TOKYO_LAND CMA_LAT CMA_LON CMA_CAT CMA_WIND CMA_PRES HKO_LAT HKO_LON HKO_CAT HKO_WIND HKO_PRES NEWDELHI_LAT NEWDELHI_LON NEWDELHI_GRADE NEWDELHI_WIND NEWDELHI_PRES NEWDELHI_CI NEWDELHI_DP NEWDELHI_POCI REUNION_LAT REUNION_LON REUNION_TYPE REUNION_WIND REUNION_PRES REUNION_TNUM REUNION_CI REUNION_RMW REUNION_R34_NE REUNION_R34_SE REUNION_R34_SW REUNION_R34_NW REUNION_R50_NE REUNION_R50_SE REUNION_R50_SW REUNION_R50_NW REUNION_R64_NE REUNION_R64_SE REUNION_R64_SW REUNION_R64_NW BOM_LAT BOM_LON BOM_TYPE BOM_WIND BOM_PRES BOM_TNUM BOM_CI BOM_RMW BOM_R34_NE BOM_R34_SE BOM_R34_SW BOM_R34_NW BOM_R50_NE BOM_R50_SE BOM_R50_SW BOM_R50_NW BOM_R64_NE BOM_R64_SE BOM_R64_SW BOM_R64_NW BOM_ROCI BOM_POCI BOM_EYE BOM_POS_METHOD BOM_PRES_METHOD NADI_LAT NADI_LON NADI_CAT NADI_WIND NADI_PRES WELLINGTON_LAT WELLINGTON_LON WELLINGTON_WIND WELLINGTON_PRES DS824_LAT DS824_LON DS824_STAGE DS824_WIND DS824_PRES TD9636_LAT TD9636_LON TD9636_STAGE TD9636_WIND TD9636_PRES TD9635_LAT TD9635_LON TD9635_WIND TD9635_PRES TD9635_ROCI NEUMANN_LAT NEUMANN_LON NEUMANN_CLASS NEUMANN_WIND NEUMANN_PRES MLC_LAT MLC_LON MLC_CLASS MLC_WIND MLC_PRES USA_GUST BOM_GUST BOM_GUST_PER REUNION_GUST REUNION_GUST_PER USA_SEAHGT USA_SEARAD_NE USA_SEARAD_SE USA_SEARAD_SW USA_SEARAD_NW STORM_SPEED STORM_DIR
1921251N23297 1921 45 NA NA NOT_NAMED 1921-09-08 00:00:00 TS 23.0000 -63.4000 35 hurdat_atl main 562 558 O_____________ hurdat_atl AL041921 23.0000 -63.4000 TS 35 0 6 304
1921251N23297 1921 45 NA NA NOT_NAMED 1921-09-08 03:00:00 TS 23.1576 -63.6574 main 571 568 P_____________ AL041921 23.1576 -63.6574 TS 35 0 6 303
1921251N23297 1921 45 NA NA NOT_NAMED 1921-09-08 06:00:00 TS 23.3000 -63.9000 35 hurdat_atl main 575 572 O_____________ hurdat_atl AL041921 23.3000 -63.9000 TS 35 0 5 302
1921251N23297 1921 45 NA NA NOT_NAMED 1921-09-08 09:00:00 TS 23.4150 -64.1150 main 580 577 P_____________ AL041921 23.4150 -64.1150 TS 35 0 4 299
1921251N23297 1921 45 NA NA NOT_NAMED 1921-09-08 12:00:00 TS 23.5000 -64.3000 35 hurdat_atl main 586 583 O_____________ hurdat_atl AL041921 23.5000 -64.3000 TS 35 0 3 293
1921251N23297 1921 45 NA NA NOT_NAMED 1921-09-08 15:00:00 TS 23.5500 -64.4576 main 581 581 P_____________ AL041921 23.5500 -64.4576 TS 35 0 3 290
1921251N23297 1921 45 NA NA NOT_NAMED 1921-09-08 18:00:00 TS 23.6000 -64.6000 35 hurdat_atl main 590 588 O_____________ hurdat_atl AL041921 23.6000 -64.6000 TS 35 0 3 298
1921251N23297 1921 45 NA NA NOT_NAMED 1921-09-08 21:00:00 TS 23.6925 -64.7500 main 599 598 P_____________ AL041921 23.6925 -64.7500 TS 35 0 3 306
1921251N23297 1921 45 NA NA NOT_NAMED 1921-09-09 00:00:00 TS 23.8000 -64.9000 35 hurdat_atl main 608 607 O_____________ hurdat_atl AL041921 23.8000 -64.9000 TS 35 0 3 307
1921251N23297 1921 45 NA NA NOT_NAMED 1921-09-09 03:00:00 TS 23.9000 -65.0500 main 617 617 P_____________ AL041921 23.9000 -65.0500 TS 35 0 3 306
1921251N23297 1921 45 NA NA NOT_NAMED 1921-09-09 06:00:00 TS 24.0000 -65.2000 35 hurdat_atl main 627 626 O_____________ hurdat_atl AL041921 24.0000 -65.2000 TS 35 0 3 306
1921251N23297 1921 45 NA NA NOT_NAMED 1921-09-09 09:00:00 TS 24.1000 -65.3500 main 637 637 P_____________ AL041921 24.1000 -65.3500 TS 35 0 3 306
1921251N23297 1921 45 NA NA NOT_NAMED 1921-09-09 12:00:00 TS 24.2000 -65.5000 35 hurdat_atl main 648 648 O_____________ hurdat_atl AL041921 24.2000 -65.5000 TS 35 0 3 306
1921251N23297 1921 45 NA NA NOT_NAMED 1921-09-09 15:00:00 TS 24.3000 -65.6500 main 659 659 P_____________ AL041921 24.3000 -65.6500 TS 35 0 3 306
1921251N23297 1921 45 NA NA NOT_NAMED 1921-09-09 18:00:00 TS 24.4000 -65.8000 35 hurdat_atl main 670 669 O_____________ hurdat_atl AL041921 24.4000 -65.8000 TS 35 0 3 305
1921251N23297 1921 45 NA NA NOT_NAMED 1921-09-09 21:00:00 TS 24.5000 -65.9575 main 673 673 P_____________ AL041921 24.5000 -65.9575 TS 35 0 3 306
1921251N23297 1921 45 NA NA NOT_NAMED 1921-09-10 00:00:00 TS 24.6000 -66.1000 35 hurdat_atl main 678 673 O_____________ hurdat_atl AL041921 24.6000 -66.1000 TS 35 0 3 311
1921251N23297 1921 45 NA NA NOT_NAMED 1921-09-10 03:00:00 TS 24.7000 -66.2075 main 682 682 P_____________ AL041921 24.7000 -66.2075 TS 35 0 3 318
1921251N23297 1921 45 NA NA NOT_NAMED 1921-09-10 06:00:00 TS 24.8000 -66.3000 35 hurdat_atl main 688 683 O_____________ hurdat_atl AL041921 24.8000 -66.3000 TS 35 0 3 314
1921251N23297 1921 45 NA NA NOT_NAMED 1921-09-10 09:00:00 TS 24.8850 -66.4150 main 693 689 P_____________ AL041921 24.8850 -66.4150 TS 35 0 3 318
1921251N23297 1921 45 NA NA NOT_NAMED 1921-09-10 12:00:00 TS 25.0000 -66.5000 35 hurdat_atl main 699 699 O_____________ hurdat_atl AL041921 25.0000 -66.5000 TS 35 0 3 340
1921251N23297 1921 45 NA NA NOT_NAMED 1921-09-10 15:00:00 TS 25.1775 -66.5300 main 719 719 P_____________ AL041921 25.1775 -66.5300 TS 35 0 4 0
1921251N23297 1921 45 NA NA NOT_NAMED 1921-09-10 18:00:00 TS 25.4000 -66.5000 35 hurdat_atl main 740 740 O_____________ hurdat_atl AL041921 25.4000 -66.5000 TS 35 0 5 12
1921251N23297 1921 45 NA NA NOT_NAMED 1921-09-10 21:00:00 TS 25.6275 -66.4225 main 764 764 P_____________ AL041921 25.6275 -66.4225 TS 35 0 5 20
1921251N23297 1921 45 NA NA NOT_NAMED 1921-09-11 00:00:00 TS 25.9000 -66.3000 35 hurdat_atl main 799 799 O_____________ hurdat_atl AL041921 25.9000 -66.3000 TS 35 0 6 21
1921251N23297 1921 45 NA NA NOT_NAMED 1921-09-11 03:00:00 TS 26.2199 -66.1723 main 833 833 P_____________ AL041921 26.2199 -66.1723 TS 40 0 8 21
1921251N23297 1921 45 NA NA NOT_NAMED 1921-09-11 06:00:00 TS 26.6000 -66.0000 45 hurdat_atl main 882 882 O_____________ hurdat_atl AL041921 26.6000 -66.0000 TS 45 0 9 24
1921251N23297 1921 45 NA NA NOT_NAMED 1921-09-11 09:00:00 TS 27.0275 -65.7650 main 931 931 P_____________ AL041921 27.0275 -65.7650 TS 50 0 10 26
1921251N23297 1921 45 NA NA NOT_NAMED 1921-09-11 12:00:00 TS 27.5000 -65.5000 55 hurdat_atl main 994 994 O_____________ hurdat_atl AL041921 27.5000 -65.5000 TS 55 0 11 25
1921251N23297 1921 45 NA NA NOT_NAMED 1921-09-11 15:00:00 TS 27.9924 -65.2572 main 1053 1053 P_____________ AL041921 27.9924 -65.2572 TS 60 0 11 24
1921251N23297 1921 45 NA NA NOT_NAMED 1921-09-11 18:00:00 TS 28.5000 -65.0000 65 hurdat_atl main 1116 1116 O_____________ hurdat_atl AL041921 28.5000 -65.0000 HU 65 1 11 26
1921251N23297 1921 45 NA NA NOT_NAMED 1921-09-11 21:00:00 TS 29.0000 -64.7073 main 1179 1179 P_____________ AL041921 29.0000 -64.7073 HU 70 1 11 28
1921251N23297 1921 45 NA NA NOT_NAMED 1921-09-12 00:00:00 TS 29.5000 -64.4000 75 hurdat_atl main 1242 1240 O_____________ hurdat_atl AL041921 29.5000 -64.4000 HU 75 1 11 27
1921251N23297 1921 45 NA NA NOT_NAMED 1921-09-12 03:00:00 TS 29.9998 -64.1145 main 1242 1231 P_____________ AL041921 29.9998 -64.1145 HU 77 1 11 27
1921251N23297 1921 45 NA NA NOT_NAMED 1921-09-12 06:00:00 TS 30.5000 -63.8000 80 hurdat_atl main 1236 1230 O_____________ hurdat_atl AL041921 30.5000 -63.8000 HU 80 1 12 31
1921251N23297 1921 45 NA NA NOT_NAMED 1921-09-12 09:00:00 TS 30.9924 -63.4221 main 1240 1235 P_____________ AL041921 30.9924 -63.4221 HU 80 1 12 34
1921251N23297 1921 45 NA NA NOT_NAMED 1921-09-12 12:00:00 TS 31.5000 -63.0000 80 hurdat_atl main 1249 1244 O_____________ hurdat_atl AL041921 31.5000 -63.0000 HU 80 1 13 35
1921251N23297 1921 45 NA NA NOT_NAMED 1921-09-12 15:00:00 TS 32.0423 -62.5645 main 1260 1229 P_____________ AL041921 32.0423 -62.5645 HU 80 1 13 35
1921251N23297 1921 45 NA NA NOT_NAMED 1921-09-12 18:00:00 TS 32.6000 -62.1000 80 hurdat_atl main 1229 1199 O_____________ hurdat_atl AL041921 32.6000 -62.1000 HU 80 1 14 36
1921251N23297 1921 45 NA NA NOT_NAMED 1921-09-12 21:00:00 TS 33.1499 -61.6070 main 1201 1149 P_____________ AL041921 33.1499 -61.6070 HU 80 1 14 37
1921251N23297 1921 45 NA NA NOT_NAMED 1921-09-13 00:00:00 TS 33.7000 -61.1000 80 hurdat_atl main 1149 1108 O_____________ hurdat_atl AL041921 33.7000 -61.1000 HU 80 1 14 37
1921251N23297 1921 45 NA NA NOT_NAMED 1921-09-13 03:00:00 TS 34.2422 -60.6065 main 1111 1066 P_____________ AL041921 34.2422 -60.6065 HU 80 1 14 37
1921251N23297 1921 45 NA NA NOT_NAMED 1921-09-13 06:00:00 TS 34.8000 -60.1000 80 hurdat_atl main 1066 1024 O_____________ hurdat_atl AL041921 34.8000 -60.1000 HU 80 1 14 36
1921251N23297 1921 45 NA NA NOT_NAMED 1921-09-13 09:00:00 TS 35.3844 -59.5861 main 1024 991 P_____________ AL041921 35.3844 -59.5861 HU 80 1 15 37
1921251N23297 1921 45 NA NA NOT_NAMED 1921-09-13 12:00:00 TS 36.0000 -59.0000 80 hurdat_atl main 991 964 O_____________ hurdat_atl AL041921 36.0000 -59.0000 HU 80 1 16 39
1921251N23297 1921 45 NA NA NOT_NAMED 1921-09-13 15:00:00 TS 36.6343 -58.3158 main 970 928 P_____________ AL041921 36.6343 -58.3158 HU 80 1 18 43
1921251N23297 1921 45 NA NA NOT_NAMED 1921-09-13 18:00:00 TS 37.3000 -57.5000 80 hurdat_atl main 928 883 O_____________ hurdat_atl AL041921 37.3000 -57.5000 HU 80 1 19 46
1921251N23297 1921 45 NA NA NOT_NAMED 1921-09-13 21:00:00 TS 37.9915 -56.5732 main 883 852 P_____________ AL041921 37.9915 -56.5732 HU 80 1 21 48
1921251N23297 1921 45 NA NA NOT_NAMED 1921-09-14 00:00:00 TS 38.7000 -55.5000 80 hurdat_atl main 857 803 O_____________ hurdat_atl AL041921 38.7000 -55.5000 HU 80 1 22 51
1921251N23297 1921 45 NA NA NOT_NAMED 1921-09-14 03:00:00 TS 39.3971 -54.3585 main 803 722 P_____________ AL041921 39.3971 -54.3585 HU 80 1 24 54
1921251N23297 1921 45 NA NA NOT_NAMED 1921-09-14 06:00:00 TS 40.1000 -53.0000 80 979 hurdat_atl main 722 658 O_____________ hurdat_atl AL041921 40.1000 -53.0000 HU 80 979 1 27 59
1921251N23297 1921 45 NA NA NOT_NAMED 1921-09-14 09:00:00 TS 40.7913 -51.3588 main 660 635 P_____________ AL041921 40.7913 -51.3588 HU 77 1 30 62
1921251N23297 1921 45 NA NA NOT_NAMED 1921-09-14 12:00:00 ET 41.5000 -49.5000 75 hurdat_atl main 638 634 O_____________ hurdat_atl AL041921 41.5000 -49.5000 EX 75 -4 32 63
1921251N23297 1921 45 NA NA NOT_NAMED 1921-09-14 15:00:00 ET 42.2466 -47.5355 main 664 662 P_____________ AL041921 42.2466 -47.5355 EX 72 -4 33 63
1921251N23297 1921 45 NA NA NOT_NAMED 1921-09-14 18:00:00 ET 43.0000 -45.5000 70 hurdat_atl main 723 O_____________ hurdat_atl AL041921 43.0000 -45.5000 EX 70 -4 33 63

IBTrACS Databaseについて

本データベースは、米国NOAAが公開する1842年以降の世界の熱帯低気圧のベストトラックデータアーカイブInternational Best Track Archive for Climate Stewardship (IBTrACS)を、ウェブで閲覧しやすい形式に変換したものです。

最終更新日:2021-10-08